Tropical Cyclones
[Index]
Main Index Home Page Stock Weather Photos Extreme Storms Discussion Storm News and Storm Chasing Reports Tropical Cyclones / Hurricanes / Typhoons Weather Data and Links Wild Fires / Bushfires Weather Observation Techniques Weather Picture Catalogue Tornado Pictures and Reports Stock Video Footage and DVDs for sale
Season 2007-2008 Tropical Cyclone PANCHO Track Map
Season 2007-2008 Summaries (Operational Data): [AU] [SIO] [SPAC] [SH]
<<- Previous TC | 2007-2008 Season | Next TC ->>

click for intensity scale information  Lat/long Grid: Show Hide

 Date Labels: Show Hide

Operational Tropical Cyclone Data : JTWC Advisories | BoM Warnings

Name: PANCHO
Number: 0826

24 Mar 2008 02:00 UTC to 30 Mar 2008 06:00 UTC

    date/time    lat    long     hPa   cat  kts
2008-03-24 02   12.3   102.9     998         30          
2008-03-24 06   12.3   102.9     996         30          
2008-03-24 12   12.9   103.3     996         30          
2008-03-24 18   13.3   103.6     996         30          
2008-03-25 00   14.2   104.0     996         30          
2008-03-25 06   14.3   104.3     992    1    35          
2008-03-25 12   14.7   103.8     986    1    45          
2008-03-25 18   15.2   103.9     982    2    50          
2008-03-26 00   15.3   104.4     972    2    55          
2008-03-26 06   15.9   104.5     970    2    60          
2008-03-26 12   17.1   105.0     966    3    65          
2008-03-26 18   18.0   105.2     950    3    80          
2008-03-27 00   19.0   105.9     938    4    90          
2008-03-27 06   20.6   106.3     938    4    90          
2008-03-27 12   21.7   106.8     938    4    90          
2008-03-27 18   23.2   107.5     944    3    85          
2008-03-28 00   23.5   108.0     950    3    80          
2008-03-28 06   24.0   108.7     962    3    70          
2008-03-28 12   25.1   109.4     972    2    60          
2008-03-28 18   25.4   109.6     980    2    50          
2008-03-29 00   25.2   110.1     990    1    40          
2008-03-29 03   25.3   110.8     996         30          
2008-03-29 06   25.4   111.3                             
2008-03-29 18   25.7   111.4            1    40          
2008-03-30 06   26.0   111.0            1    40          
Winds are 10-min average.

Tropical cyclone tracks developed by Michael Bath using operational warnings and advisories and Google Maps.


[Australian Severe Weather index] [Copyright Notice] [Email Contacts] [Search This Site] [Privacy Policy]
Document: tropical_cyclone_pancho.htm Updated: 2 May 2017